PGUMRJGG

Guest
Details From PGUM - Guam Intl
To RJGG - Chubu Centrair Intl
Flight Number -
Tags Generated
Created
Modified
Stats Distance 1,356 nm / 2,511 km
Max Altitude 0 ft / 0 m
Waypoints 4
Social Downloads 1
Likes 0
Share VATSIM

Download

Looking for another format? Having issues loading an existing format? Contact us
Advertisement - Login to hide

Notes

Generated

Route

PGUM IJT99 FLUTE RJGG

ID Type Via Altitude Latitude Longitude Leg Dist Tot Dist Heading (true) Name
O PGUM APT - 0 ft / 0 m 13.47716˚ 144.78482˚ - 0 nm - -
IJT99 FIX - 0 ft / 0 m 24.58332˚ 140.97908˚ 700 nm 700 nm 343° / 341° -
FLUTE FIX - 0 ft / 0 m 34.53858˚ 136.96373˚ 633 nm 1334 nm 342° / 340° -
O RJGG APT - 0 ft / 0 m 34.87389˚ 136.80168˚ 21 nm 1356 nm 338° / 338° -

Altitude Profile

Advertisement - Login to hide

Weather


0- 5 10 15 20 25 30 35+ Temperature / ° C

Clouds and Precipitation
Forecast for 2017-12-12 12:00 UTC. Updated an hour ago

Ground ~20,000 ft ~40,000 ft Winds

PGUM

Details ICAO PGUM (GUM)
Name Guam Intl
Region USA (Guam, Northern Mariana Islands)
Timezone Pacific/Guam (UTC+10.0)
Stats Elevation 298 ft / 91 m (AMSL)
Location 13.483874° 144.797171°
Runways 2
Magnetic Variation 0.748° E

METAR

PGUM 120754Z 11007KT 10SM CLR 28/26 A2981 RMK AO2 SLP087 T02780256 PNO

Decode

TAF

TAF PGUM 120531Z 1206/1312 10013KT P6SM VCSH FEW020 SCT040 FM120800 10008KT P6SM VCSH FEW020 SCT040 FM122300 10013KT P6SM VCSH FEW020 FEW040

Decode

Departure Runways

ID Width Length Bearing (true) Bearing (mag) Surface Threshold Offset Overrun Length
06L 150 ft / 46 m 10,016 ft / 3,053 m 64.81° 64.06° Asphalt 0 ft / 0 m 1,002 ft / 305 m
06R 150 ft / 46 m 10,015 ft / 3,053 m 64.81° 64.06° Asphalt 0 ft / 0 m 400 ft / 122 m
24L 150 ft / 46 m 10,015 ft / 3,053 m 244.82° 244.07° Asphalt 1,004 ft / 306 m 300 ft / 91 m
24R 150 ft / 46 m 10,016 ft / 3,053 m 244.82° 244.07° Asphalt 0 ft / 0 m 450 ft / 137 m

RJGG

Details ICAO RJGG (NGO)
Name CHUBU CENTRAIR INTL
Region Japan
Timezone Asia/Tokyo (UTC+9.0)
Stats Elevation 15 ft / 5 m (AMSL)
Location 34.858414° 136.805408°
Runways 1
Magnetic Variation 7.580° W

METAR

RJGG 120800Z 28024KT 9999 FEW020 BKN/// 06/M03 Q1016 NOSIG

Decode

TAF

TAF RJGG 120507Z 1206/1312 29022KT 9999 FEW020 SCT040

Decode

Destination Runways

ID Width Length Bearing (true) Bearing (mag) Surface Threshold Offset Overrun Length
18 197 ft / 60 m 11,511 ft / 3,509 m 168.81° 176.39° Asphalt 0 ft / 0 m 197 ft / 60 m
36 197 ft / 60 m 11,511 ft / 3,509 m 348.81° 356.39° Asphalt 0 ft / 0 m 197 ft / 60 m

Approach Navaids

Runway Type Ident Frequency Range Bearing (true) Bearing (mag) Slope Elevation
18 Localiser ICY 109.70 MHz 25 nm / 46 km 168.79° 176.37° - 12 ft / 4 m (AMSL)
18 Glidescope ICY 109.70 MHz 25 nm / 46 km 176.00° 183.58° 3.00° 12 ft / 4 m (AMSL)
36 Localiser ICX 111.90 MHz 25 nm / 46 km 348.79° 356.37° - 12 ft / 4 m (AMSL)
36 Glidescope ICX 111.90 MHz 25 nm / 46 km 356.00° 3.58° 3.00° 12 ft / 4 m (AMSL)

Popular Alternatives